Portada
METAR-TAF:

METAR-TAF

Aeroports :

Jacksonville, Florida, Estats Units d'Amèrica

latitud: 30-13-07N, longitud: 081-52-36W, altitud: 25 m

Observació

L'informe es va fer fa 1 hora i 8 minuts, a les 15:50 UTC
Vent 7 kt del Oest/Nord-Oest
Temperatura 12°C
Humitat 47%
Pressió 1023 hPa
Visibilitat: 16.1 km
Núvols disperses a una alçada de 3100 ft

METAR: KVQQ 271550Z 30007KT 10SM SCT031 12/01 A3020

Hora: 11:58 (16:58 UTC)

Pronòstic

L'informe es va fer fa 20 minuts, a les 16:38 UTC
Pronòstic vàlid del 27 a les 17 UTC al 28 a les 12 UTC
Vent 10 kt del Oest/Nord-Oest amb ràfegues de 15 kt
Visibilitat: 10 km
Escasses núvols a una alçada de 3000 ft
Núvols disperses a una alçada de 25000 ft
A partir de les 27 a les 2300 UTC
Vent 2 kt del Oest/Nord-Oest
Visibilitat: 10 km
Cel clar

TAF: KVQQ 271638Z 2717/2812 30010G15KT P6SM FEW030 SCT250 FM272300 29002KT P6SM SKC

Observacions i pronòstics meteorològics de més de 4000 aeroports (METAR i TAF).

Les estacions disponibles són els punts grocs i vermells al mapa.

Posi el ratolí al punt desitjat per veure el nom de l'estació.

Feu clic per veure les observacions i els pronòstics meteorològics.

Per canviar el mapa: feu clic els botons verds amb una creu de color negre per apropar; al botó verd amb un guió per allunyar la imatge; o en les fletxes verdes per a mapes adjacents.


METAR-TAF: